Pagrindinis puslapis
METAR-TAF:

METAR-TAF

Oro uostai :

Mykonos, Graikija

platuma: 37-26-09N, ilguma: 025-20-45E, Aukštis: 123 m

Dabartinis oras

Ataskaita buvo paskelbta 22 minutes, ne 13:20 UTC
Vėjas 8 kt iš Šiaurės
Temperatūra 18°C
Drėgmė 56%
Slėgis 1019 hPa
Matomumas 10 km arba daugiau
Mažai debesys ne aukštis 1200 ft

METAR: LGMK 151320Z 01008KT 9999 FEW012 18/09 Q1019

Laikas: 15:42 (13:42 UTC)

Prognozė

Ataskaita buvo paskelbta 2 valandos ir 42 minutes, ne 11:00 UTC
Prognozė galioja nuo 15 metu 12 UTC su 15 metu 21 UTC
Vėjas 10 kt iš Šiaurės
Matomumas 10 km arba daugiau
Mažai debesys ne aukštis 1200 ft
Išsisklaidę debesys ne aukštis 2000 ft
Tapsmas
nuo 15 metu 18 UTC su 15 metu 20 UTC
Vėjas 10 kt iš Šiaurės/Šiaurės Vakarų

TAF: LGMK 151100Z 1512/1521 01010KT 9999 FEW012 SCT020 BECMG 1518/1520 34010KT

Orai ataskaitas ir orų prognozės (METAR, TAF).

turimą stotys yra geltonos ir raudonos taškus žemėlapyje.

Perkelti pele per norėdami pamatyti stoties vardą.

Tada spustelėkite, norėdami matyti oro stebėjimo ir prognozės.

Norėdami pakeisti žemėlapį: spustelėkite ant žalios mygtukų su juodo kryžiaus žemyn,; žalią mygtuką su brūkšneliu, jei norite nutolinti; arba žalių rodyklių gretimoms žemėlapius.


METAR-TAF: